createdAt,value
2023-04-21T00:00:21.437Z,0.00
2023-04-21T00:01:21.397Z,0.00
2023-04-21T00:02:22.013Z,0.00
2023-04-21T00:03:22.689Z,0.00
2023-04-21T00:04:22.487Z,0.00
2023-04-21T00:05:22.730Z,0.00
2023-04-21T00:06:23.197Z,0.00
2023-04-21T00:07:23.286Z,0.00
2023-04-21T00:08:23.811Z,0.00
2023-04-21T00:09:24.369Z,0.00
2023-04-21T00:10:24.937Z,0.00
2023-04-21T00:11:25.510Z,0.00
2023-04-21T00:12:26.068Z,0.00
2023-04-21T00:13:26.612Z,0.00
2023-04-21T00:14:27.150Z,0.00
2023-04-21T00:15:27.709Z,0.00
2023-04-21T00:16:28.305Z,0.00
2023-04-21T00:17:28.341Z,0.00
2023-04-21T00:18:28.312Z,0.00
2023-04-21T00:19:28.866Z,0.00
2023-04-21T00:20:29.442Z,0.00
2023-04-21T00:21:30.005Z,0.00
2023-04-21T00:22:30.014Z,0.00
2023-04-21T00:23:30.565Z,0.00
2023-04-21T00:24:31.114Z,0.00
2023-04-21T00:25:31.655Z,0.00
2023-04-21T00:26:32.195Z,0.00
2023-04-21T00:27:32.746Z,0.00
2023-04-21T00:28:33.306Z,0.00
2023-04-21T00:29:33.847Z,0.00
2023-04-21T00:30:34.380Z,0.00
2023-04-21T00:31:34.965Z,0.00
2023-04-21T00:32:34.960Z,0.00
2023-04-21T00:33:35.477Z,0.00
2023-04-21T00:34:35.994Z,0.00
2023-04-21T00:35:36.501Z,0.00
2023-04-21T00:36:37.006Z,0.00
2023-04-21T00:37:37.518Z,0.00
2023-04-21T00:38:38.042Z,0.00
2023-04-21T00:39:38.561Z,0.00
2023-04-21T00:40:39.063Z,0.00
2023-04-21T00:41:39.564Z,0.00
2023-04-21T00:42:40.069Z,0.00
2023-04-21T00:43:40.562Z,0.00
2023-04-21T00:44:41.067Z,0.00
2023-04-21T00:45:41.563Z,0.00
2023-04-21T00:46:42.101Z,0.00
2023-04-21T00:47:42.655Z,0.00
2023-04-21T00:48:42.637Z,0.00
2023-04-21T00:49:43.141Z,0.00
2023-04-21T00:50:43.668Z,0.00
2023-04-21T00:51:44.187Z,0.00
2023-04-21T00:52:44.710Z,0.00
2023-04-21T00:53:45.207Z,0.00
2023-04-21T00:54:45.708Z,0.00
2023-04-21T00:55:46.259Z,0.00
2023-04-21T00:56:46.765Z,0.00
2023-04-21T00:57:47.278Z,0.00
2023-04-21T00:58:47.792Z,0.00
2023-04-21T00:59:48.303Z,0.00
2023-04-21T01:00:48.879Z,0.00
2023-04-21T01:01:48.898Z,0.00
2023-04-21T01:02:48.948Z,0.00
2023-04-21T01:03:49.067Z,0.00
2023-04-21T01:04:49.114Z,0.00
2023-04-21T01:05:49.656Z,0.00
2023-04-21T01:06:50.162Z,0.00
2023-04-21T01:07:50.661Z,0.00
2023-04-21T01:08:51.176Z,0.00
2023-04-21T01:09:51.706Z,0.00
2023-04-21T01:10:52.236Z,0.00
2023-04-21T01:11:52.744Z,0.00
2023-04-21T01:12:53.257Z,0.00
2023-04-21T01:13:53.773Z,0.00
2023-04-21T01:14:54.289Z,0.00
2023-04-21T01:15:54.797Z,0.00
2023-04-21T01:16:55.387Z,0.00
2023-04-21T01:17:55.379Z,0.00
2023-04-21T01:18:55.996Z,0.00
2023-04-21T01:19:56.019Z,0.00
2023-04-21T01:20:55.938Z,0.00
2023-04-21T01:21:55.939Z,0.00
2023-04-21T01:22:56.464Z,0.00
2023-04-21T01:23:56.970Z,0.00
2023-04-21T01:24:57.484Z,0.00
2023-04-21T01:25:57.982Z,0.00
2023-04-21T01:26:58.482Z,0.00
2023-04-21T01:27:59.057Z,0.00
2023-04-21T01:28:59.563Z,0.00
2023-04-21T01:30:00.065Z,0.00
2023-04-21T01:31:00.573Z,0.00
2023-04-21T01:32:01.116Z,0.00
2023-04-21T01:33:01.680Z,0.00
2023-04-21T01:34:02.212Z,0.00
2023-04-21T01:35:02.722Z,0.00
2023-04-21T01:36:03.219Z,0.00
2023-04-21T01:37:03.716Z,0.00
2023-04-21T01:38:04.210Z,0.00
2023-04-21T01:39:04.727Z,0.00
2023-04-21T01:40:05.287Z,0.00
2023-04-21T01:41:05.796Z,0.00
2023-04-21T01:42:06.299Z,0.00
2023-04-21T01:43:06.801Z,0.00
2023-04-21T01:44:07.324Z,0.00
2023-04-21T01:45:07.856Z,0.00
2023-04-21T01:46:08.402Z,0.00
2023-04-21T01:47:08.923Z,0.00
2023-04-21T01:48:09.512Z,0.00
2023-04-21T01:49:09.482Z,0.00
2023-04-21T01:50:10.033Z,0.00
2023-04-21T01:51:10.562Z,0.00
2023-04-21T01:52:10.602Z,0.00
2023-04-21T01:53:11.111Z,0.00
2023-04-21T01:54:11.606Z,0.00
2023-04-21T01:55:12.110Z,0.00
2023-04-21T01:56:12.623Z,0.00
2023-04-21T01:57:13.167Z,0.00
2023-04-21T01:58:13.721Z,0.00
2023-04-21T01:59:14.226Z,0.00
2023-04-21T02:00:14.738Z,0.00
2023-04-21T02:01:15.286Z,0.00
2023-04-21T02:02:15.924Z,0.00
2023-04-21T02:03:16.066Z,0.00
2023-04-21T02:04:16.273Z,0.00
2023-04-21T02:05:16.243Z,0.00
2023-04-21T02:06:16.741Z,0.00
2023-04-21T02:07:17.249Z,0.00
2023-04-21T02:08:17.757Z,0.00
2023-04-21T02:09:18.585Z,0.00
2023-04-21T02:10:18.729Z,0.00
2023-04-21T02:11:19.260Z,0.00
2023-04-21T02:12:19.791Z,0.00
2023-04-21T02:13:20.287Z,0.00
2023-04-21T02:14:20.772Z,0.00
2023-04-21T02:15:21.277Z,0.00
2023-04-21T02:16:21.846Z,0.00
2023-04-21T02:17:22.373Z,0.00
2023-04-21T02:18:22.901Z,0.00
2023-04-21T02:19:23.457Z,0.00
2023-04-21T02:20:24.020Z,0.00
2023-04-21T02:21:24.546Z,0.00
2023-04-21T02:22:24.628Z,0.00
2023-04-21T02:23:25.140Z,0.00
2023-04-21T02:24:25.689Z,0.00
2023-04-21T02:25:26.193Z,0.00
2023-04-21T02:26:26.683Z,0.00
2023-04-21T02:27:27.205Z,0.00
2023-04-21T02:28:27.738Z,0.00
2023-04-21T02:29:28.252Z,0.00
2023-04-21T02:30:28.756Z,0.00
2023-04-21T02:36:12.208Z,0.00
2023-04-21T02:37:13.370Z,0.00
2023-04-21T02:38:13.941Z,0.00
2023-04-21T02:39:14.503Z,0.00
2023-04-21T02:40:15.097Z,0.00
2023-04-21T02:41:15.668Z,0.00
2023-04-21T02:42:16.248Z,0.00
2023-04-21T02:43:16.828Z,0.00
2023-04-21T02:44:17.375Z,0.00
2023-04-21T02:45:17.916Z,0.00
2023-04-21T02:46:18.559Z,0.00
2023-04-21T02:47:18.572Z,0.00
2023-04-21T02:48:19.149Z,0.00
2023-04-21T02:49:20.061Z,0.00
2023-04-21T02:50:20.280Z,0.00
2023-04-21T02:51:20.867Z,0.00
2023-04-21T02:52:21.446Z,0.00
2023-04-21T02:53:22.037Z,0.00
2023-04-21T02:54:22.620Z,0.00
2023-04-21T02:55:23.192Z,0.00
2023-04-21T02:56:23.776Z,0.00
2023-04-21T02:57:24.361Z,0.00
2023-04-21T02:58:24.954Z,0.00
2023-04-21T02:59:25.536Z,0.00
2023-04-21T03:00:26.384Z,0.00
2023-04-21T03:01:26.492Z,0.00
2023-04-21T03:02:26.792Z,0.00
2023-04-21T03:03:26.999Z,0.00
2023-04-21T03:04:27.310Z,0.00
2023-04-21T03:05:27.497Z,0.00
2023-04-21T03:06:28.066Z,0.00
2023-04-21T03:07:28.652Z,0.00
2023-04-21T03:08:29.242Z,0.00
2023-04-21T03:09:29.832Z,0.00
2023-04-21T03:10:30.431Z,0.00
2023-04-21T03:11:31.035Z,0.00
2023-04-21T03:12:31.620Z,0.00
2023-04-21T03:13:32.192Z,0.00
2023-04-21T03:14:32.771Z,0.00
2023-04-21T03:15:33.343Z,0.00
2023-04-21T03:16:33.948Z,0.00
2023-04-21T03:17:34.589Z,0.00
2023-04-21T03:18:34.609Z,0.00
2023-04-21T03:19:35.191Z,0.00
2023-04-21T03:20:35.786Z,0.00
2023-04-21T03:21:36.377Z,0.00
2023-04-21T03:22:36.970Z,0.00
2023-04-21T03:23:37.550Z,0.00
2023-04-21T03:24:38.153Z,0.00
2023-04-21T03:25:38.771Z,0.00
2023-04-21T03:26:39.357Z,0.00
2023-04-21T03:27:39.923Z,0.00
2023-04-21T03:28:40.487Z,0.00
2023-04-21T03:29:41.061Z,0.00
2023-04-21T03:30:41.702Z,0.00
2023-04-21T03:31:41.718Z,0.00
2023-04-21T03:32:41.950Z,0.00
2023-04-21T03:33:41.946Z,0.00
2023-04-21T03:34:42.523Z,0.00
2023-04-21T03:35:43.099Z,0.00
2023-04-21T03:36:43.676Z,0.00
2023-04-21T03:37:44.239Z,0.00
2023-04-21T03:38:44.819Z,0.00
2023-04-21T03:39:45.403Z,0.00
2023-04-21T03:40:45.971Z,0.00
2023-04-21T03:41:46.556Z,0.00
2023-04-21T03:42:47.155Z,0.00
2023-04-21T03:43:47.720Z,0.00
2023-04-21T03:44:48.294Z,0.00
2023-04-21T03:45:48.921Z,0.00
2023-04-21T03:46:48.990Z,0.00
2023-04-21T03:47:49.758Z,0.00
2023-04-21T03:48:49.856Z,0.00
2023-04-21T03:49:49.920Z,0.00
2023-04-21T03:50:50.538Z,0.00
2023-04-21T03:51:51.183Z,0.00
2023-04-21T03:52:51.219Z,0.00
2023-04-21T03:53:51.844Z,0.00
2023-04-21T03:54:52.454Z,0.00
2023-04-21T03:55:53.085Z,0.00
2023-04-21T03:56:53.121Z,0.00
2023-04-21T03:57:53.740Z,0.00
2023-04-21T03:58:54.367Z,0.00
2023-04-21T03:59:54.972Z,0.00
2023-04-21T04:00:55.578Z,0.00
2023-04-21T04:01:56.194Z,0.00
2023-04-21T04:02:56.932Z,0.00
2023-04-21T04:03:57.230Z,0.00
2023-04-21T04:04:57.375Z,0.00
2023-04-21T04:05:57.515Z,0.00
2023-04-21T04:06:57.574Z,0.00
2023-04-21T04:07:57.622Z,0.00
2023-04-21T04:08:58.218Z,0.00
2023-04-21T04:09:58.838Z,0.00
2023-04-21T04:10:59.464Z,0.00
2023-04-21T04:12:00.123Z,0.00
2023-04-21T04:13:00.166Z,0.00
2023-04-21T04:14:00.795Z,0.00
2023-04-21T04:15:01.457Z,0.00
2023-04-21T04:16:01.564Z,0.00
2023-04-21T04:17:01.640Z,0.00
2023-04-21T04:18:02.279Z,0.00
2023-04-21T04:19:02.371Z,0.00
2023-04-21T04:20:02.420Z,0.00
2023-04-21T04:21:03.042Z,0.00
2023-04-21T04:22:03.654Z,0.00
2023-04-21T04:23:04.254Z,0.00
2023-04-21T04:24:04.864Z,0.00
2023-04-21T04:25:05.506Z,0.00
2023-04-21T04:26:05.759Z,0.00
2023-04-21T04:27:05.851Z,0.00
2023-04-21T04:28:05.873Z,0.00
2023-04-21T04:29:06.478Z,0.00
2023-04-21T04:30:07.135Z,5.62
2023-04-21T04:31:07.229Z,5.62
2023-04-21T04:32:07.288Z,5.62
2023-04-21T04:33:07.935Z,5.62
2023-04-21T04:34:07.977Z,5.62
2023-04-21T04:35:08.614Z,5.62
2023-04-21T04:36:09.222Z,5.62
2023-04-21T04:37:09.842Z,5.62
2023-04-21T04:38:10.450Z,5.62
2023-04-21T04:39:11.071Z,11.25
2023-04-21T04:40:11.682Z,11.25
2023-04-21T04:41:12.302Z,11.25
2023-04-21T04:42:12.946Z,11.25
2023-04-21T04:43:12.996Z,11.25
2023-04-21T04:44:13.062Z,11.25
2023-04-21T04:45:13.121Z,11.25
2023-04-21T04:46:13.750Z,11.25
2023-04-21T04:47:13.786Z,11.25
2023-04-21T04:48:14.415Z,16.88
2023-04-21T04:49:15.031Z,16.88
2023-04-21T04:50:15.630Z,16.88
2023-04-21T04:51:16.241Z,16.88
2023-04-21T04:52:16.826Z,16.88
2023-04-21T04:53:17.398Z,16.88
2023-04-21T04:54:18.355Z,22.50
2023-04-21T04:55:18.595Z,22.50
2023-04-21T04:56:19.176Z,22.50
2023-04-21T04:57:19.793Z,22.50
2023-04-21T04:58:20.379Z,22.50
2023-04-21T04:59:20.973Z,22.50
2023-04-21T05:00:21.578Z,28.12
2023-04-21T05:01:22.206Z,28.12
2023-04-21T05:02:22.363Z,33.75
2023-04-21T05:03:22.654Z,33.75
2023-04-21T05:04:23.137Z,33.75
2023-04-21T05:05:23.104Z,39.38
2023-04-21T05:06:23.686Z,39.38
2023-04-21T05:07:24.270Z,39.38
2023-04-21T05:08:24.890Z,39.38
2023-04-21T05:09:25.476Z,45.00
2023-04-21T05:10:26.042Z,45.00
2023-04-21T05:11:26.618Z,45.00
2023-04-21T05:12:27.198Z,50.62
2023-04-21T05:13:27.804Z,50.62
2023-04-21T05:14:28.406Z,50.62
2023-04-21T05:15:29.038Z,50.62
2023-04-21T05:16:29.060Z,50.62
2023-04-21T05:17:29.697Z,50.62
2023-04-21T05:18:29.707Z,50.62
2023-04-21T05:19:30.276Z,50.62
2023-04-21T05:20:30.864Z,56.25
2023-04-21T05:21:31.450Z,56.25
2023-04-21T05:22:32.046Z,56.25
2023-04-21T05:23:32.649Z,56.25
2023-04-21T05:24:33.218Z,56.25
2023-04-21T05:25:33.782Z,56.25
2023-04-21T05:26:34.348Z,50.62
2023-04-21T05:27:34.927Z,56.25
2023-04-21T05:28:35.496Z,56.25
2023-04-21T05:29:36.068Z,61.88
2023-04-21T05:30:36.640Z,56.25
2023-04-21T05:31:37.248Z,56.25
2023-04-21T05:32:37.860Z,56.25
2023-04-21T05:33:38.464Z,56.25
2023-04-21T05:34:39.074Z,61.88
2023-04-21T05:35:39.680Z,56.25
2023-04-21T05:36:40.258Z,56.25
2023-04-21T05:37:40.852Z,56.25
2023-04-21T05:38:42.434Z,56.25
2023-04-21T05:39:41.841Z,56.25
2023-04-21T05:40:42.442Z,56.25
2023-04-21T05:41:43.045Z,56.25
2023-04-21T05:42:43.634Z,50.62
2023-04-21T05:43:44.239Z,50.62
2023-04-21T05:44:44.821Z,50.62
2023-04-21T05:45:45.453Z,50.62
2023-04-21T05:46:45.508Z,50.62
2023-04-21T05:47:46.166Z,50.62
2023-04-21T05:48:46.190Z,45.00
2023-04-21T05:49:46.765Z,45.00
2023-04-21T05:50:47.352Z,50.62
2023-04-21T05:51:47.936Z,50.62
2023-04-21T05:52:48.532Z,56.25
2023-04-21T05:53:49.110Z,56.25
2023-04-21T05:54:49.686Z,56.25
2023-04-21T05:55:50.283Z,61.88
2023-04-21T05:56:50.853Z,61.88
2023-04-21T05:57:51.424Z,61.88
2023-04-21T05:58:52.029Z,67.50
2023-04-21T05:59:52.605Z,67.50
2023-04-21T06:00:53.178Z,61.88
2023-04-21T06:01:53.760Z,61.88
2023-04-21T06:02:54.468Z,61.88
2023-04-21T06:03:54.774Z,61.88
2023-04-21T06:04:55.002Z,61.88
2023-04-21T06:05:55.194Z,56.25
2023-04-21T06:06:55.310Z,61.88
2023-04-21T06:07:55.892Z,56.25
2023-04-21T06:08:56.468Z,56.25
2023-04-21T06:09:57.057Z,56.25
2023-04-21T06:10:57.647Z,56.25
2023-04-21T06:11:58.224Z,56.25
2023-04-21T06:12:58.824Z,61.88
2023-04-21T06:13:59.401Z,61.88
2023-04-21T06:14:59.970Z,67.50
2023-04-21T06:16:00.594Z,78.75
2023-04-21T06:17:00.612Z,78.75
2023-04-21T06:18:01.354Z,84.38
2023-04-21T06:19:01.449Z,78.75
2023-04-21T06:20:02.040Z,84.38
2023-04-21T06:21:02.652Z,84.38
2023-04-21T06:22:03.227Z,84.38
2023-04-21T06:23:03.823Z,78.75
2023-04-21T06:24:04.396Z,84.38
2023-04-21T06:25:04.962Z,78.75
2023-04-21T06:26:05.600Z,78.75
2023-04-21T06:27:05.619Z,78.75
2023-04-21T06:28:06.175Z,78.75
2023-04-21T06:29:06.745Z,78.75
2023-04-21T06:30:07.318Z,78.75
2023-04-21T06:31:08.984Z,78.75
2023-04-21T06:32:08.082Z,78.75
2023-04-21T06:33:08.151Z,84.38
2023-04-21T06:34:08.145Z,84.38
2023-04-21T06:35:08.713Z,95.62
2023-04-21T06:36:09.306Z,95.62
2023-04-21T06:37:09.900Z,101.25
2023-04-21T06:38:10.509Z,95.62
2023-04-21T06:39:10.551Z,95.62
2023-04-21T06:40:11.142Z,90.00
2023-04-21T06:41:11.722Z,78.75
2023-04-21T06:42:12.309Z,84.38
2023-04-21T06:43:12.901Z,78.75
2023-04-21T06:44:13.483Z,78.75
2023-04-21T06:45:14.058Z,78.75
2023-04-21T06:46:14.630Z,78.75
2023-04-21T06:47:15.246Z,78.75
2023-04-21T06:48:15.938Z,84.38
2023-04-21T06:49:15.954Z,84.38
2023-04-21T06:50:16.538Z,84.38
2023-04-21T06:51:17.134Z,84.38
2023-04-21T06:52:18.902Z,84.38
2023-04-21T06:53:17.759Z,84.38
2023-04-21T06:54:18.315Z,90.00
2023-04-21T06:55:18.868Z,95.62
2023-04-21T06:56:19.429Z,95.62
2023-04-21T06:57:20.000Z,112.50
2023-04-21T06:58:21.455Z,129.38
2023-04-21T06:59:21.202Z,135.00
2023-04-21T07:00:21.299Z,135.00
2023-04-21T07:01:21.916Z,129.38
2023-04-21T07:02:22.026Z,135.00
2023-04-21T07:03:22.316Z,146.25
2023-04-21T07:04:22.536Z,157.50
2023-04-21T07:05:22.545Z,174.38
2023-04-21T07:06:23.131Z,202.50
2023-04-21T07:07:23.724Z,219.38
2023-04-21T07:08:24.298Z,225.00
2023-04-21T07:09:24.885Z,219.38
2023-04-21T07:10:25.520Z,213.75
2023-04-21T07:11:25.536Z,208.12
2023-04-21T07:12:26.154Z,208.12
2023-04-21T07:13:26.144Z,208.12
2023-04-21T07:14:26.721Z,202.50
2023-04-21T07:15:27.306Z,196.88
2023-04-21T07:16:27.921Z,191.25
2023-04-21T07:17:27.963Z,191.25
2023-04-21T07:18:27.985Z,185.62
2023-04-21T07:19:28.620Z,191.25
2023-04-21T07:20:28.618Z,202.50
2023-04-21T07:21:29.200Z,213.75
2023-04-21T07:22:29.792Z,230.62
2023-04-21T07:23:30.386Z,241.88
2023-04-21T07:24:30.978Z,253.12
2023-04-21T07:25:31.552Z,258.75
2023-04-21T07:26:32.124Z,264.38
2023-04-21T07:27:32.722Z,270.00
2023-04-21T07:28:32.706Z,270.00
2023-04-21T07:29:33.275Z,264.38
2023-04-21T07:30:33.872Z,258.75
2023-04-21T07:31:34.000Z,258.75
2023-04-21T07:32:34.332Z,247.50
2023-04-21T07:33:34.916Z,236.25
2023-04-21T07:34:35.523Z,219.38
2023-04-21T07:35:35.513Z,208.12
2023-04-21T07:36:36.102Z,196.88
2023-04-21T07:37:36.086Z,180.00
2023-04-21T07:38:36.755Z,174.38
2023-04-21T07:39:36.741Z,168.75
2023-04-21T07:40:37.315Z,168.75
2023-04-21T07:41:37.895Z,174.38
2023-04-21T07:42:38.464Z,180.00
2023-04-21T07:43:39.023Z,180.00
2023-04-21T07:44:39.584Z,191.25
2023-04-21T07:45:40.125Z,191.25
2023-04-21T07:46:40.699Z,202.50
2023-04-21T07:47:40.712Z,202.50
2023-04-21T07:48:40.699Z,208.12
2023-04-21T07:49:41.237Z,213.75
2023-04-21T07:50:41.774Z,219.38
2023-04-21T07:51:42.321Z,230.62
2023-04-21T07:52:42.857Z,241.88
2023-04-21T07:53:43.402Z,253.12
2023-04-21T07:54:43.958Z,264.38
2023-04-21T07:55:44.534Z,275.62
2023-04-21T07:56:45.092Z,286.88
2023-04-21T07:57:45.656Z,292.50
2023-04-21T07:58:46.203Z,292.50
2023-04-21T07:59:46.775Z,292.50
2023-04-21T08:00:47.345Z,292.50
2023-04-21T08:01:48.114Z,286.88
2023-04-21T08:02:48.397Z,281.25
2023-04-21T08:03:48.940Z,281.25
2023-04-21T08:04:49.104Z,281.25
2023-04-21T08:05:49.444Z,286.88
2023-04-21T08:06:49.980Z,292.50
2023-04-21T08:07:49.505Z,292.50
2023-04-21T08:08:50.079Z,292.50
2023-04-21T08:09:50.121Z,298.12
2023-04-21T08:10:50.062Z,298.12
2023-04-21T08:11:50.605Z,303.75
2023-04-21T08:12:51.150Z,315.00
2023-04-21T08:13:51.742Z,337.50
2023-04-21T08:14:55.251Z,360.00
2023-04-21T08:15:52.296Z,376.88
2023-04-21T08:16:53.506Z,393.75
2023-04-21T08:17:53.002Z,410.62
2023-04-21T08:18:52.975Z,421.88
2023-04-21T08:19:52.955Z,393.75
2023-04-21T08:20:53.514Z,393.75
2023-04-21T08:21:54.096Z,393.75
2023-04-21T08:22:54.227Z,388.12
2023-04-21T08:23:54.208Z,388.12
2023-04-21T08:24:54.731Z,371.25
2023-04-21T08:25:55.293Z,360.00
2023-04-21T08:26:55.977Z,354.38
2023-04-21T08:27:55.930Z,343.12
2023-04-21T08:28:56.452Z,320.62
2023-04-21T08:29:56.985Z,320.62
2023-04-21T08:30:57.511Z,309.38
2023-04-21T08:31:58.122Z,315.00
2023-04-21T08:32:58.245Z,326.25
2023-04-21T08:34:02.481Z,331.88
2023-04-21T08:34:58.319Z,331.88
2023-04-21T08:36:05.456Z,320.62
2023-04-21T08:36:59.081Z,315.00
2023-04-21T08:37:59.046Z,315.00
2023-04-21T08:38:59.087Z,309.38
2023-04-21T08:39:59.103Z,298.12
2023-04-21T08:40:59.081Z,298.12
2023-04-21T08:41:59.605Z,286.88
2023-04-21T08:43:00.132Z,270.00
2023-04-21T08:44:00.123Z,270.00
2023-04-21T08:45:00.174Z,264.38
2023-04-21T08:46:00.269Z,264.38
2023-04-21T08:47:00.253Z,258.75
2023-04-21T08:48:00.834Z,253.12
2023-04-21T08:49:00.811Z,264.38
2023-04-21T08:50:00.774Z,298.12
2023-04-21T08:51:00.723Z,315.00
2023-04-21T08:52:00.691Z,303.75
2023-04-21T08:53:01.240Z,281.25
2023-04-21T08:54:01.207Z,320.62
2023-04-21T08:55:01.218Z,320.62
2023-04-21T08:56:10.908Z,281.25
2023-04-21T08:57:11.886Z,270.00
2023-04-21T08:58:01.662Z,247.50
2023-04-21T08:59:01.631Z,253.12
2023-04-21T09:00:02.981Z,258.75
2023-04-21T09:01:01.643Z,264.38
2023-04-21T09:02:01.776Z,264.38
2023-04-21T09:03:02.693Z,253.12
2023-04-21T09:04:02.436Z,236.25
2023-04-21T09:05:02.776Z,230.62
2023-04-21T09:06:02.745Z,230.62
2023-04-21T09:07:02.843Z,236.25
2023-04-21T09:08:02.816Z,247.50
2023-04-21T09:09:02.763Z,264.38
2023-04-21T09:10:02.724Z,264.38
2023-04-21T09:11:02.772Z,275.62
2023-04-21T09:12:02.748Z,264.38
2023-04-21T09:13:02.705Z,247.50
2023-04-21T09:14:02.684Z,275.62
2023-04-21T09:15:02.628Z,303.75
2023-04-21T09:16:02.606Z,286.88
2023-04-21T09:17:02.820Z,241.88
2023-04-21T09:18:02.926Z,213.75
2023-04-21T09:19:02.925Z,208.12
2023-04-21T09:20:02.882Z,202.50
2023-04-21T09:21:02.838Z,202.50
2023-04-21T09:22:02.793Z,202.50
2023-04-21T09:23:02.751Z,208.12
2023-04-21T09:24:02.701Z,219.38
2023-04-21T09:25:02.648Z,236.25
2023-04-21T09:26:02.669Z,275.62
2023-04-21T09:27:02.660Z,315.00
2023-04-21T09:28:02.616Z,315.00
2023-04-21T09:29:02.589Z,258.75
2023-04-21T09:30:02.557Z,236.25
2023-04-21T09:31:02.523Z,225.00
2023-04-21T09:32:02.496Z,230.62
2023-04-21T09:33:06.211Z,264.38
2023-04-21T09:34:02.709Z,230.62
2023-04-21T09:35:02.684Z,258.75
2023-04-21T09:36:02.652Z,247.50
2023-04-21T09:37:02.604Z,219.38
2023-04-21T09:38:02.547Z,213.75
2023-04-21T09:40:05.177Z,247.50
2023-04-21T09:41:02.671Z,236.25
2023-04-21T09:42:02.606Z,225.00
2023-04-21T09:43:02.554Z,196.88
2023-04-21T09:44:02.497Z,196.88
2023-04-21T09:45:28.450Z,191.25
2023-04-21T09:46:02.707Z,185.62
2023-04-21T09:47:02.773Z,185.62
2023-04-21T09:48:02.736Z,191.25
2023-04-21T09:49:02.705Z,185.62
2023-04-21T09:50:02.828Z,191.25
2023-04-21T09:51:28.229Z,191.25
2023-04-21T09:53:02.086Z,219.38
2023-04-21T09:54:03.198Z,225.00
2023-04-21T09:55:03.131Z,219.38
2023-04-21T09:56:03.073Z,225.00
2023-04-21T09:57:03.025Z,236.25
2023-04-21T09:58:02.971Z,286.88
2023-04-21T09:59:02.934Z,348.75
2023-04-21T10:00:02.907Z,416.25
2023-04-21T10:01:02.867Z,416.25
2023-04-21T10:02:02.883Z,382.50
2023-04-21T10:03:02.964Z,376.88
2023-04-21T10:04:03.128Z,337.50
2023-04-21T10:05:03.361Z,360.00
2023-04-21T10:06:03.560Z,337.50
2023-04-21T10:07:03.585Z,388.12
2023-04-21T10:08:03.562Z,455.62
2023-04-21T10:09:03.498Z,466.88
2023-04-21T10:10:03.427Z,433.12
2023-04-21T10:11:03.374Z,495.00
2023-04-21T10:12:03.312Z,540.00
2023-04-21T10:13:03.234Z,540.00
2023-04-21T10:14:03.193Z,585.00
2023-04-21T10:15:03.124Z,585.00
2023-04-21T10:16:03.062Z,573.75
2023-04-21T10:17:03.085Z,630.00
2023-04-21T10:18:03.069Z,556.88
2023-04-21T10:19:03.019Z,461.25
2023-04-21T10:20:02.941Z,450.00
2023-04-21T10:21:02.876Z,472.50
2023-04-21T10:22:02.777Z,483.75
2023-04-21T10:23:02.695Z,466.88
2023-04-21T10:24:03.171Z,506.25
2023-04-21T10:25:03.660Z,545.62
2023-04-21T10:26:04.135Z,585.00
2023-04-21T10:27:04.034Z,573.75
2023-04-21T10:28:03.954Z,551.25
2023-04-21T10:29:04.453Z,495.00
2023-04-21T10:30:04.379Z,472.50
2023-04-21T10:31:04.360Z,433.12
2023-04-21T10:32:05.208Z,399.38
2023-04-21T10:33:04.486Z,416.25
2023-04-21T10:34:04.395Z,444.38
2023-04-21T10:35:04.337Z,388.12
2023-04-21T10:36:04.247Z,371.25
2023-04-21T10:37:04.165Z,399.38
2023-04-21T10:38:04.060Z,376.88
2023-04-21T10:39:04.504Z,354.38
2023-04-21T10:40:04.415Z,326.25
2023-04-21T10:41:04.320Z,343.12
2023-04-21T10:42:04.224Z,331.88
2023-04-21T10:43:04.115Z,326.25
2023-04-21T10:44:04.573Z,331.88
2023-04-21T10:45:05.032Z,360.00
2023-04-21T10:46:05.497Z,382.50
2023-04-21T10:47:05.995Z,354.38
2023-04-21T10:48:05.875Z,354.38
2023-04-21T10:49:05.808Z,360.00
2023-04-21T10:50:06.224Z,360.00
2023-04-21T10:51:06.662Z,416.25
2023-04-21T10:52:07.122Z,495.00
2023-04-21T10:53:07.507Z,410.62
2023-04-21T10:54:07.946Z,382.50
2023-04-21T10:55:08.424Z,354.38
2023-04-21T10:56:08.263Z,337.50
2023-04-21T10:57:08.728Z,365.62
2023-04-21T10:58:09.203Z,343.12
2023-04-21T10:59:09.100Z,360.00
2023-04-21T11:00:08.967Z,388.12
2023-04-21T11:01:09.407Z,433.12
2023-04-21T11:02:09.333Z,500.62
2023-04-21T11:03:09.388Z,466.88
2023-04-21T11:04:09.410Z,433.12
2023-04-21T11:05:09.427Z,416.25
2023-04-21T11:06:09.252Z,433.12
2023-04-21T11:07:09.659Z,416.25
2023-04-21T11:08:10.043Z,382.50
2023-04-21T11:09:10.427Z,371.25
2023-04-21T11:10:10.811Z,376.88
2023-04-21T11:11:11.295Z,388.12
2023-04-21T11:12:11.115Z,360.00
2023-04-21T11:13:11.534Z,348.75
2023-04-21T11:14:11.393Z,348.75
2023-04-21T11:15:11.762Z,348.75
2023-04-21T11:16:12.169Z,337.50
2023-04-21T11:17:12.544Z,337.50
2023-04-21T11:18:12.907Z,331.88
2023-04-21T11:19:13.309Z,331.88
2023-04-21T11:20:13.690Z,337.50
2023-04-21T11:21:14.040Z,337.50
2023-04-21T11:22:14.422Z,348.75
2023-04-21T11:23:14.798Z,354.38
2023-04-21T11:24:15.168Z,354.38
2023-04-21T11:25:15.585Z,360.00
2023-04-21T11:26:15.976Z,382.50
2023-04-21T11:27:16.335Z,427.50
2023-04-21T11:28:16.700Z,427.50
2023-04-21T11:29:17.131Z,483.75
2023-04-21T11:30:17.536Z,601.88
2023-04-21T11:31:17.907Z,680.62
2023-04-21T11:32:18.285Z,545.62
2023-04-21T11:33:18.657Z,500.62
2023-04-21T11:34:18.735Z,804.38
2023-04-21T11:35:18.655Z,765.00
2023-04-21T11:36:18.991Z,731.25
2023-04-21T11:37:19.321Z,686.25
2023-04-21T11:38:19.662Z,1029.38
2023-04-21T11:39:21.829Z,2002.50
2023-04-21T11:40:20.264Z,2970.00
2023-04-21T11:41:20.602Z,3560.62
2023-04-21T11:42:20.917Z,3611.25
2023-04-21T11:43:21.245Z,3633.75
2023-04-21T11:44:21.582Z,3510.00
2023-04-21T11:45:22.784Z,2188.12
2023-04-21T11:46:22.148Z,3543.75
2023-04-21T11:47:21.988Z,3791.25
2023-04-21T11:48:21.689Z,4218.75
2023-04-21T11:49:21.975Z,1726.88
2023-04-21T11:50:22.222Z,1558.12
2023-04-21T11:51:22.599Z,4297.50
2023-04-21T11:52:22.284Z,2851.88
2023-04-21T11:53:22.535Z,2452.50
2023-04-21T11:54:22.786Z,675.00
2023-04-21T11:55:23.047Z,658.12
2023-04-21T11:56:23.298Z,826.88
2023-04-21T11:57:23.567Z,4162.50
2023-04-21T11:58:23.843Z,5321.25
2023-04-21T11:59:25.657Z,5338.12
2023-04-21T12:00:24.015Z,5360.62
2023-04-21T12:01:24.291Z,5366.25
2023-04-21T12:02:24.666Z,5332.50
2023-04-21T12:03:24.539Z,5231.25
2023-04-21T12:04:24.381Z,5501.25
2023-04-21T12:05:24.143Z,1305.00
2023-04-21T12:06:23.968Z,607.50
2023-04-21T12:07:23.763Z,720.00
2023-04-21T12:08:24.005Z,1226.25
2023-04-21T12:09:24.259Z,3960.00
2023-04-21T12:10:24.497Z,4668.75
2023-04-21T12:11:24.737Z,4657.50
2023-04-21T12:12:24.966Z,4376.25
2023-04-21T12:13:25.212Z,1366.88
2023-04-21T12:14:25.435Z,4944.38
2023-04-21T12:15:25.714Z,5242.50
2023-04-21T12:16:25.448Z,5416.88
2023-04-21T12:17:25.141Z,5259.38
2023-04-21T12:18:24.810Z,5028.75
2023-04-21T12:19:25.033Z,5056.88
2023-04-21T12:20:25.255Z,5208.75
2023-04-21T12:21:25.462Z,5377.50
2023-04-21T12:22:25.666Z,5523.75
2023-04-21T12:23:25.850Z,5422.50
2023-04-21T12:24:26.054Z,5416.88
2023-04-21T12:25:25.693Z,5433.75
2023-04-21T12:26:25.892Z,5355.00
2023-04-21T12:27:26.082Z,1018.12
2023-04-21T12:28:26.257Z,5236.88
2023-04-21T12:29:26.453Z,5203.12
2023-04-21T12:30:26.635Z,1198.12
2023-04-21T12:31:26.944Z,1080.00
2023-04-21T12:32:26.618Z,2424.38
2023-04-21T12:33:26.419Z,1113.75
2023-04-21T12:34:26.138Z,3538.12
2023-04-21T12:35:26.326Z,3155.62
2023-04-21T12:36:26.557Z,3166.88
2023-04-21T12:37:26.745Z,3166.88
2023-04-21T12:38:26.953Z,3256.88
2023-04-21T12:39:27.244Z,1192.50
2023-04-21T12:40:27.012Z,3003.75
2023-04-21T12:41:27.211Z,3155.62
2023-04-21T12:42:27.456Z,3150.00
2023-04-21T12:43:27.657Z,3245.62
2023-04-21T12:44:27.865Z,3476.25
2023-04-21T12:45:28.126Z,3639.38
2023-04-21T12:46:28.044Z,3813.75
2023-04-21T12:47:27.766Z,3875.62
2023-04-21T12:48:27.409Z,3886.88
2023-04-21T12:49:27.790Z,3954.38
2023-04-21T12:50:27.491Z,4038.75
2023-04-21T12:51:27.693Z,4275.00
2023-04-21T12:52:27.886Z,4584.38
2023-04-21T12:53:30.491Z,4860.00
2023-04-21T12:54:27.845Z,5107.50
2023-04-21T12:55:28.028Z,5321.25
2023-04-21T12:56:28.202Z,5411.25
2023-04-21T12:57:28.397Z,5540.62
2023-04-21T12:58:28.584Z,5686.88